Cape Girardeau, MO

3:23 PM CDT on July 04, 2015 (GMT -0500)
Timber Creek | | Change Station
CLOSE
Current Station
Personal Weather Station
Location: Cape Girardeau, MO
Elevation: 440 ft
Nearby Weather Stations
Active Advisory: Flood Warning

Elev 440 ft 37.34 °N, 89.54 °W | Updated 2 minutes ago

Partly Cloudy
Partly Cloudy
80.0 °F
Feels Like 83 °F
N
3.0
Wind Variable Wind from ESE
Gusts 7.0 mph

Today
High -- | Low -- °F
--% Chance of Precip.
Yesterday
High -- | Low -- °F
Precip. -- in
5:42 AM 8:22 PM
Waning Gibbous, 90% visible
Pressure 29.98 in
Visibility 10.0 miles
Clouds Clear
Heat Index 83 °F
Dew Point 70 °F
Humidity 71%
Rainfall 0.00 in
Snow Depth Not available.
UV 3.7 out of 12
Pollen 3.30 out of 12
Air Quality Not available.
Flu Activity Not available.
METAR KCIR 042015Z AUTO 00000KT 10SM CLR 26/18 A2998 RMK AO2 T02620181

More Conditions Fewer Conditions

Pressure 29.98 in
Visibility 10.0 miles
Clouds Clear
Heat Index 83 °F
Dew Point 70 °F
Humidity 71%
Rainfall 0.00 in
Snow Depth Not available.
UV 3.7 out of 12
Pollen 3.30 out of 12
Air Quality Not available.
Flu Activity Not available.
METAR KCIR 042015Z AUTO 00000KT 10SM CLR 26/18 A2998 RMK AO2 T02620181

More Conditions Fewer Conditions

10-Day Weather Forecast

×

Almanac

Astronomy

Jul. 04, 2015 Rise Set
Actual Time
Civil Twilight
Nautical Twilight
Astronomical Twilight
Moon
Length of Visible Light
Length of Day
Tomorrow will be .
, % of the Moon is Illuminated

Today's Extremes

State Highs State Lows

Community

WunderPhotos

Upload Photos

1,835,086 photos uploaded!

WunderBlogs® & News

Nearby

Air Quality

  Air Quality AQ Index Pollutant
Not available.

Snow Depth

Station Depth Elevation

Earthquake Activity

City Distance Mag. Time & Date
Minimum magnitude displayed is 2.5.

Coastal Water Temperatures

Place Temperature

Stations

Nearby Weather Stations

Station Location Temp. Windchill Dew Point Humidity Wind Precip. Elev Updated Type
                   
Flood Warning
Statement as of 12:18 PM CDT on July 04, 2015

The Flood Warning continues for
the Mississippi River at Cape Girardeau
* until further notice.
* At 12:00 PM Saturday the stage was 42.8 feet.
* Flood stage is 32.0 feet.
* Major flooding is occurring and major flooding is forecast.
* Forecast... the river will begin a slow fall.
* Impact... at 43.0 feet... the flood gate on north Main Street closes.


Lat... Lon 3769 8959 3732 8963 3723 8959 3725 8941
      3744 8934 3769 8935